sensor_id;sensor_type;location;lat;lon;timestamp;P1;durP1;ratioP1;P2;durP2;ratioP2
55350;SDS011;62194;49.480;10.986;2023-05-07T00:00:03;7.50;;;5.70;;
55350;SDS011;62194;49.480;10.986;2023-05-07T00:00:12;7.54;;;5.71;;
55350;SDS011;62194;49.480;10.986;2023-05-07T00:00:20;7.68;;;5.50;;
55350;SDS011;62194;49.480;10.986;2023-05-07T00:00:26;7.28;;;5.38;;
55350;SDS011;62194;49.480;10.986;2023-05-07T00:00:31;6.23;;;5.20;;
55350;SDS011;62194;49.480;10.986;2023-05-07T00:00:40;6.30;;;5.17;;
55350;SDS011;62194;49.480;10.986;2023-05-07T00:00:47;7.29;;;5.33;;
55350;SDS011;62194;49.480;10.986;2023-05-07T00:00:53;7.28;;;5.57;;
55350;SDS011;62194;49.480;10.986;2023-05-07T00:00:58;7.40;;;5.77;;
55350;SDS011;62194;49.480;10.986;2023-05-07T00:01:04;7.68;;;5.90;;
55350;SDS011;62194;49.480;10.986;2023-05-07T00:01:11;8.30;;;6.00;;
55350;SDS011;62194;49.480;10.986;2023-05-07T00:01:16;8.37;;;6.13;;
55350;SDS011;62194;49.480;10.986;2023-05-07T00:01:22;8.90;;;6.25;;
55350;SDS011;62194;49.480;10.986;2023-05-07T00:01:27;8.67;;;6.10;;
55350;SDS011;62194;49.480;10.986;2023-05-07T00:01:32;8.32;;;6.03;;
55350;SDS011;62194;49.480;10.986;2023-05-07T00:01:38;7.63;;;5.97;;
55350;SDS011;62194;49.480;10.986;2023-05-07T00:01:43;6.57;;;5.80;;
55350;SDS011;62194;49.480;10.986;2023-05-07T00:01:48;6.40;;;5.72;;
55350;SDS011;62194;49.480;10.986;2023-05-07T00:01:54;6.40;;;5.70;;
55350;SDS011;62194;49.480;10.986;2023-05-07T00:01:59;6.70;;;5.72;;
55350;SDS011;62194;49.480;10.986;2023-05-07T00:02:05;7.23;;;5.80;;
55350;SDS011;62194;49.480;10.986;2023-05-07T00:02:12;7.80;;;5.70;;
55350;SDS011;62194;49.480;10.986;2023-05-07T00:02:18;7.68;;;5.60;;
55350;SDS011;62194;49.480;10.986;2023-05-07T00:02:23;7.33;;;5.57;;
55350;SDS011;62194;49.480;10.986;2023-05-07T00:02:28;6.80;;;5.22;;
55350;SDS011;62194;49.480;10.986;2023-05-07T00:02:34;6.53;;;5.23;;
55350;SDS011;62194;49.480;10.986;2023-05-07T00:02:40;6.03;;;5.30;;
55350;SDS011;62194;49.480;10.986;2023-05-07T00:02:45;5.90;;;5.22;;
55350;SDS011;62194;49.480;10.986;2023-05-07T00:02:51;5.95;;;5.20;;
55350;SDS011;62194;49.480;10.986;2023-05-07T00:02:57;6.10;;;5.30;;
55350;SDS011;62194;49.480;10.986;2023-05-07T00:03:02;6.30;;;5.25;;
55350;SDS011;62194;49.480;10.986;2023-05-07T00:03:08;6.37;;;5.17;;
55350;SDS011;62194;49.480;10.986;2023-05-07T00:03:13;6.53;;;5.22;;
55350;SDS011;62194;49.480;10.986;2023-05-07T00:03:18;6.70;;;5.30;;
55350;SDS011;62194;49.480;10.986;2023-05-07T00:03:25;6.77;;;5.30;;
55350;SDS011;62194;49.480;10.986;2023-05-07T00:03:31;6.93;;;5.40;;
55350;SDS011;62194;49.480;10.986;2023-05-07T00:03:37;6.35;;;5.40;;
55350;SDS011;62194;49.480;10.986;2023-05-07T00:03:42;6.35;;;5.40;;
55350;SDS011;62194;49.480;10.986;2023-05-07T00:03:48;6.18;;;5.40;;
55350;SDS011;62194;49.480;10.986;2023-05-07T00:03:53;6.10;;;5.43;;
55350;SDS011;62194;49.480;10.986;2023-05-07T00:03:58;6.30;;;5.57;;
55350;SDS011;62194;49.480;10.986;2023-05-07T00:04:04;7.27;;;5.77;;
55350;SDS011;62194;49.480;10.986;2023-05-07T00:04:10;7.28;;;5.70;;
55350;SDS011;62194;49.480;10.986;2023-05-07T00:04:18;7.22;;;5.52;;
55350;SDS011;62194;49.480;10.986;2023-05-07T00:04:23;7.37;;;5.50;;
55350;SDS011;62194;49.480;10.986;2023-05-07T00:04:28;7.40;;;5.40;;
55350;SDS011;62194;49.480;10.986;2023-05-07T00:04:40;6.82;;;5.46;;
55350;SDS011;62194;49.480;10.986;2023-05-07T00:04:45;6.97;;;5.73;;
55350;SDS011;62194;49.480;10.986;2023-05-07T00:04:51;6.97;;;5.70;;
55350;SDS011;62194;49.480;10.986;2023-05-07T00:04:56;6.77;;;5.67;;
55350;SDS011;62194;49.480;10.986;2023-05-07T00:05:02;6.63;;;5.50;;
55350;SDS011;62194;49.480;10.986;2023-05-07T00:05:08;6.93;;;5.53;;
55350;SDS011;62194;49.480;10.986;2023-05-07T00:05:13;7.87;;;5.60;;
55350;SDS011;62194;49.480;10.986;2023-05-07T00:05:19;7.97;;;5.60;;
55350;SDS011;62194;49.480;10.986;2023-05-07T00:05:24;7.37;;;5.57;;
55350;SDS011;62194;49.480;10.986;2023-05-07T00:05:30;7.60;;;5.60;;
55350;SDS011;62194;49.480;10.986;2023-05-07T00:05:35;7.73;;;5.60;;
55350;SDS011;62194;49.480;10.986;2023-05-07T00:05:41;6.53;;;5.40;;
55350;SDS011;62194;49.480;10.986;2023-05-07T00:05:46;6.47;;;5.40;;
55350;SDS011;62194;49.480;10.986;2023-05-07T00:05:52;6.67;;;5.57;;
55350;SDS011;62194;49.480;10.986;2023-05-07T00:05:57;6.97;;;5.53;;
55350;SDS011;62194;49.480;10.986;2023-05-07T00:06:03;6.95;;;5.57;;
55350;SDS011;62194;49.480;10.986;2023-05-07T00:06:08;6.50;;;5.37;;
55350;SDS011;62194;49.480;10.986;2023-05-07T00:06:17;6.47;;;5.30;;
55350;SDS011;62194;49.480;10.986;2023-05-07T00:06:22;6.17;;;5.20;;
55350;SDS011;62194;49.480;10.986;2023-05-07T00:06:31;5.87;;;5.27;;
55350;SDS011;62194;49.480;10.986;2023-05-07T00:06:37;6.43;;;5.70;;
55350;SDS011;62194;49.480;10.986;2023-05-07T00:06:42;7.57;;;6.00;;
55350;SDS011;62194;49.480;10.986;2023-05-07T00:06:48;7.45;;;6.00;;
55350;SDS011;62194;49.480;10.986;2023-05-07T00:06:53;7.83;;;6.07;;
55350;SDS011;62194;49.480;10.986;2023-05-07T00:06:58;7.87;;;6.00;;
55350;SDS011;62194;49.480;10.986;2023-05-07T00:07:04;7.63;;;5.93;;
55350;SDS011;62194;49.480;10.986;2023-05-07T00:07:09;7.10;;;5.70;;
55350;SDS011;62194;49.480;10.986;2023-05-07T00:07:15;6.15;;;5.45;;
55350;SDS011;62194;49.480;10.986;2023-05-07T00:07:21;6.07;;;5.38;;
55350;SDS011;62194;49.480;10.986;2023-05-07T00:07:26;6.00;;;5.40;;
55350;SDS011;62194;49.480;10.986;2023-05-07T00:07:31;6.10;;;5.50;;
55350;SDS011;62194;49.480;10.986;2023-05-07T00:07:36;5.93;;;5.30;;
55350;SDS011;62194;49.480;10.986;2023-05-07T00:07:42;6.20;;;5.23;;
55350;SDS011;62194;49.480;10.986;2023-05-07T00:07:47;6.30;;;5.30;;
55350;SDS011;62194;49.480;10.986;2023-05-07T00:07:53;6.38;;;5.22;;
55350;SDS011;62194;49.480;10.986;2023-05-07T00:07:58;6.27;;;5.10;;
55350;SDS011;62194;49.480;10.986;2023-05-07T00:08:03;6.07;;;5.10;;
55350;SDS011;62194;49.480;10.986;2023-05-07T00:08:09;6.00;;;5.20;;
55350;SDS011;62194;49.480;10.986;2023-05-07T00:08:14;5.65;;;5.05;;
55350;SDS011;62194;49.480;10.986;2023-05-07T00:08:20;5.80;;;5.13;;
55350;SDS011;62194;49.480;10.986;2023-05-07T00:08:25;5.83;;;5.20;;
55350;SDS011;62194;49.480;10.986;2023-05-07T00:08:30;6.22;;;5.45;;
55350;SDS011;62194;49.480;10.986;2023-05-07T00:08:36;6.33;;;5.50;;
55350;SDS011;62194;49.480;10.986;2023-05-07T00:08:41;6.45;;;5.53;;
55350;SDS011;62194;49.480;10.986;2023-05-07T00:08:47;6.60;;;5.47;;
55350;SDS011;62194;49.480;10.986;2023-05-07T00:08:52;6.23;;;5.20;;
55350;SDS011;62194;49.480;10.986;2023-05-07T00:08:57;6.10;;;5.17;;
55350;SDS011;62194;49.480;10.986;2023-05-07T00:09:03;5.85;;;4.78;;
55350;SDS011;62194;49.480;10.986;2023-05-07T00:09:09;5.88;;;4.68;;
55350;SDS011;62194;49.480;10.986;2023-05-07T00:09:14;6.15;;;4.60;;
55350;SDS011;62194;49.480;10.986;2023-05-07T00:09:19;6.33;;;4.70;;
55350;SDS011;62194;49.480;10.986;2023-05-07T00:09:25;6.57;;;4.70;;
55350;SDS011;62194;49.480;10.986;2023-05-07T00:09:30;6.60;;;4.80;;
55350;SDS011;62194;49.480;10.986;2023-05-07T00:09:35;6.80;;;4.95;;
55350;SDS011;62194;49.480;10.986;2023-05-07T00:09:41;6.93;;;5.00;;
55350;SDS011;62194;49.480;10.986;2023-05-07T00:09:46;6.73;;;5.10;;
55350;SDS011;62194;49.480;10.986;2023-05-07T00:09:51;6.63;;;5.15;;
55350;SDS011;62194;49.480;10.986;2023-05-07T00:09:56;6.17;;;5.10;;
55350;SDS011;62194;49.480;10.986;2023-05-07T00:10:02;5.87;;;4.93;;
55350;SDS011;62194;49.480;10.986;2023-05-07T00:10:09;6.10;;;4.93;;
55350;SDS011;62194;49.480;10.986;2023-05-07T00:10:15;6.63;;;5.03;;
55350;SDS011;62194;49.480;10.986;2023-05-07T00:10:20;6.28;;;5.03;;
55350;SDS011;62194;49.480;10.986;2023-05-07T00:10:26;6.63;;;5.10;;
55350;SDS011;62194;49.480;10.986;2023-05-07T00:10:31;7.07;;;5.20;;
55350;SDS011;62194;49.480;10.986;2023-05-07T00:10:36;7.03;;;5.15;;
55350;SDS011;62194;49.480;10.986;2023-05-07T00:10:44;6.67;;;5.13;;
55350;SDS011;62194;49.480;10.986;2023-05-07T00:10:51;6.88;;;5.25;;
55350;SDS011;62194;49.480;10.986;2023-05-07T00:10:56;6.47;;;5.15;;
55350;SDS011;62194;49.480;10.986;2023-05-07T00:11:02;5.97;;;5.10;;
55350;SDS011;62194;49.480;10.986;2023-05-07T00:11:07;5.82;;;5.15;;
55350;SDS011;62194;49.480;10.986;2023-05-07T00:11:12;5.80;;;5.20;;
55350;SDS011;62194;49.480;10.986;2023-05-07T00:11:18;5.57;;;5.03;;
55350;SDS011;62194;49.480;10.986;2023-05-07T00:11:23;5.60;;;5.00;;
55350;SDS011;62194;49.480;10.986;2023-05-07T00:11:29;5.83;;;4.97;;
55350;SDS011;62194;49.480;10.986;2023-05-07T00:11:34;6.00;;;5.00;;
55350;SDS011;62194;49.480;10.986;2023-05-07T00:11:40;5.83;;;4.90;;
55350;SDS011;62194;49.480;10.986;2023-05-07T00:11:45;5.90;;;5.00;;
55350;SDS011;62194;49.480;10.986;2023-05-07T00:11:50;5.90;;;5.07;;
55350;SDS011;62194;49.480;10.986;2023-05-07T00:11:56;5.88;;;5.18;;
55350;SDS011;62194;49.480;10.986;2023-05-07T00:12:01;5.80;;;5.20;;
55350;SDS011;62194;49.480;10.986;2023-05-07T00:12:07;5.75;;;5.15;;
55350;SDS011;62194;49.480;10.986;2023-05-07T00:12:12;5.60;;;5.00;;
55350;SDS011;62194;49.480;10.986;2023-05-07T00:12:18;5.40;;;4.90;;
55350;SDS011;62194;49.480;10.986;2023-05-07T00:12:23;5.35;;;4.85;;
55350;SDS011;62194;49.480;10.986;2023-05-07T00:12:28;5.40;;;4.90;;
55350;SDS011;62194;49.480;10.986;2023-05-07T00:12:36;5.45;;;4.90;;
55350;SDS011;62194;49.480;10.986;2023-05-07T00:12:41;5.53;;;4.93;;
55350;SDS011;62194;49.480;10.986;2023-05-07T00:12:46;5.60;;;5.00;;
55350;SDS011;62194;49.480;10.986;2023-05-07T00:12:52;5.43;;;4.93;;
55350;SDS011;62194;49.480;10.986;2023-05-07T00:12:57;5.40;;;4.90;;
55350;SDS011;62194;49.480;10.986;2023-05-07T00:13:02;5.50;;;4.90;;
55350;SDS011;62194;49.480;10.986;2023-05-07T00:13:08;5.60;;;5.00;;
55350;SDS011;62194;49.480;10.986;2023-05-07T00:13:13;5.60;;;5.00;;
55350;SDS011;62194;49.480;10.986;2023-05-07T00:13:18;5.70;;;4.90;;
55350;SDS011;62194;49.480;10.986;2023-05-07T00:13:24;5.80;;;4.95;;
55350;SDS011;62194;49.480;10.986;2023-05-07T00:13:29;6.33;;;5.00;;
55350;SDS011;62194;49.480;10.986;2023-05-07T00:13:40;6.16;;;4.97;;
55350;SDS011;62194;49.480;10.986;2023-05-07T00:13:45;6.60;;;5.00;;
55350;SDS011;62194;49.480;10.986;2023-05-07T00:13:50;6.73;;;5.20;;
55350;SDS011;62194;49.480;10.986;2023-05-07T00:13:56;6.75;;;5.20;;
55350;SDS011;62194;49.480;10.986;2023-05-07T00:14:01;6.17;;;5.20;;
55350;SDS011;62194;49.480;10.986;2023-05-07T00:14:06;6.87;;;5.20;;
55350;SDS011;62194;49.480;10.986;2023-05-07T00:14:12;6.63;;;5.32;;
55350;SDS011;62194;49.480;10.986;2023-05-07T00:14:17;6.30;;;5.40;;
55350;SDS011;62194;49.480;10.986;2023-05-07T00:14:25;7.02;;;5.47;;
55350;SDS011;62194;49.480;10.986;2023-05-07T00:14:30;7.60;;;5.53;;
55350;SDS011;62194;49.480;10.986;2023-05-07T00:14:36;7.37;;;5.57;;
55350;SDS011;62194;49.480;10.986;2023-05-07T00:14:41;7.43;;;5.40;;
55350;SDS011;62194;49.480;10.986;2023-05-07T00:14:47;7.67;;;5.27;;
55350;SDS011;62194;49.480;10.986;2023-05-07T00:14:52;7.65;;;5.20;;
55350;SDS011;62194;49.480;10.986;2023-05-07T00:14:57;7.00;;;5.00;;
55350;SDS011;62194;49.480;10.986;2023-05-07T00:15:03;7.22;;;4.93;;
55350;SDS011;62194;49.480;10.986;2023-05-07T00:15:08;7.13;;;4.90;;
55350;SDS011;62194;49.480;10.986;2023-05-07T00:15:14;7.05;;;4.72;;
55350;SDS011;62194;49.480;10.986;2023-05-07T00:15:19;6.40;;;4.63;;
55350;SDS011;62194;49.480;10.986;2023-05-07T00:15:24;6.25;;;4.47;;
55350;SDS011;62194;49.480;10.986;2023-05-07T00:15:30;5.70;;;4.50;;
55350;SDS011;62194;49.480;10.986;2023-05-07T00:15:35;5.57;;;4.70;;
55350;SDS011;62194;49.480;10.986;2023-05-07T00:15:40;5.63;;;4.80;;
55350;SDS011;62194;49.480;10.986;2023-05-07T00:15:46;5.85;;;4.95;;
55350;SDS011;62194;49.480;10.986;2023-05-07T00:15:51;5.87;;;5.10;;
55350;SDS011;62194;49.480;10.986;2023-05-07T00:15:56;6.00;;;5.33;;
55350;SDS011;62194;49.480;10.986;2023-05-07T00:16:02;6.18;;;5.32;;
55350;SDS011;62194;49.480;10.986;2023-05-07T00:16:07;6.30;;;5.38;;
55350;SDS011;62194;49.480;10.986;2023-05-07T00:16:13;6.20;;;5.30;;
55350;SDS011;62194;49.480;10.986;2023-05-07T00:16:18;6.10;;;5.13;;
55350;SDS011;62194;49.480;10.986;2023-05-07T00:16:23;6.03;;;5.00;;
55350;SDS011;62194;49.480;10.986;2023-05-07T00:16:29;5.67;;;4.87;;
55350;SDS011;62194;49.480;10.986;2023-05-07T00:16:34;5.23;;;4.67;;
55350;SDS011;62194;49.480;10.986;2023-05-07T00:16:39;5.13;;;4.60;;
55350;SDS011;62194;49.480;10.986;2023-05-07T00:16:45;5.17;;;4.63;;
55350;SDS011;62194;49.480;10.986;2023-05-07T00:16:50;5.27;;;4.73;;
55350;SDS011;62194;49.480;10.986;2023-05-07T00:16:55;5.20;;;4.70;;
55350;SDS011;62194;49.480;10.986;2023-05-07T00:17:01;5.40;;;4.77;;
55350;SDS011;62194;49.480;10.986;2023-05-07T00:17:06;5.33;;;4.80;;
55350;SDS011;62194;49.480;10.986;2023-05-07T00:17:11;5.32;;;4.75;;
55350;SDS011;62194;49.480;10.986;2023-05-07T00:17:16;5.40;;;4.80;;
55350;SDS011;62194;49.480;10.986;2023-05-07T00:17:22;5.37;;;4.83;;
55350;SDS011;62194;49.480;10.986;2023-05-07T00:17:27;5.30;;;4.80;;
55350;SDS011;62194;49.480;10.986;2023-05-07T00:17:33;5.30;;;4.80;;
55350;SDS011;62194;49.480;10.986;2023-05-07T00:17:38;5.47;;;4.85;;
55350;SDS011;62194;49.480;10.986;2023-05-07T00:17:43;5.43;;;4.87;;
55350;SDS011;62194;49.480;10.986;2023-05-07T00:17:49;5.57;;;4.93;;
55350;SDS011;62194;49.480;10.986;2023-05-07T00:17:54;5.90;;;4.97;;
55350;SDS011;62194;49.480;10.986;2023-05-07T00:18:00;6.93;;;5.00;;
55350;SDS011;62194;49.480;10.986;2023-05-07T00:18:05;6.83;;;5.07;;
55350;SDS011;62194;49.480;10.986;2023-05-07T00:18:11;6.65;;;5.00;;
55350;SDS011;62194;49.480;10.986;2023-05-07T00:18:17;6.63;;;4.97;;
55350;SDS011;62194;49.480;10.986;2023-05-07T00:18:25;6.41;;;4.90;;
55350;SDS011;62194;49.480;10.986;2023-05-07T00:18:31;5.57;;;5.00;;
55350;SDS011;62194;49.480;10.986;2023-05-07T00:18:36;5.63;;;5.05;;
55350;SDS011;62194;49.480;10.986;2023-05-07T00:18:41;5.60;;;4.97;;
55350;SDS011;62194;49.480;10.986;2023-05-07T00:18:47;5.50;;;4.90;;
55350;SDS011;62194;49.480;10.986;2023-05-07T00:18:52;5.50;;;4.90;;
55350;SDS011;62194;49.480;10.986;2023-05-07T00:18:58;5.60;;;4.93;;
55350;SDS011;62194;49.480;10.986;2023-05-07T00:19:03;5.60;;;4.95;;
55350;SDS011;62194;49.480;10.986;2023-05-07T00:19:08;5.57;;;4.80;;
55350;SDS011;62194;49.480;10.986;2023-05-07T00:19:14;5.67;;;4.97;;
55350;SDS011;62194;49.480;10.986;2023-05-07T00:19:19;5.93;;;4.90;;
55350;SDS011;62194;49.480;10.986;2023-05-07T00:19:24;6.97;;;4.93;;
55350;SDS011;62194;49.480;10.986;2023-05-07T00:19:29;6.63;;;4.70;;
55350;SDS011;62194;49.480;10.986;2023-05-07T00:19:35;6.63;;;4.70;;
55350;SDS011;62194;49.480;10.986;2023-05-07T00:19:40;6.35;;;4.60;;
55350;SDS011;62194;49.480;10.986;2023-05-07T00:19:45;6.23;;;4.60;;
55350;SDS011;62194;49.480;10.986;2023-05-07T00:19:51;5.22;;;4.47;;
55350;SDS011;62194;49.480;10.986;2023-05-07T00:19:56;4.67;;;4.23;;
55350;SDS011;62194;49.480;10.986;2023-05-07T00:20:02;5.43;;;4.20;;
55350;SDS011;62194;49.480;10.986;2023-05-07T00:20:08;5.60;;;4.20;;
55350;SDS011;62194;49.480;10.986;2023-05-07T00:20:14;6.13;;;4.30;;
55350;SDS011;62194;49.480;10.986;2023-05-07T00:20:19;6.20;;;4.40;;
55350;SDS011;62194;49.480;10.986;2023-05-07T00:20:25;6.27;;;4.50;;
55350;SDS011;62194;49.480;10.986;2023-05-07T00:20:30;5.80;;;4.57;;
55350;SDS011;62194;49.480;10.986;2023-05-07T00:20:35;5.60;;;4.67;;
55350;SDS011;62194;49.480;10.986;2023-05-07T00:20:41;5.17;;;4.50;;
55350;SDS011;62194;49.480;10.986;2023-05-07T00:20:46;5.00;;;4.50;;
55350;SDS011;62194;49.480;10.986;2023-05-07T00:20:51;5.00;;;4.50;;
55350;SDS011;62194;49.480;10.986;2023-05-07T00:20:57;5.10;;;4.60;;
55350;SDS011;62194;49.480;10.986;2023-05-07T00:21:02;5.30;;;4.80;;
55350;SDS011;62194;49.480;10.986;2023-05-07T00:21:07;5.50;;;4.90;;
55350;SDS011;62194;49.480;10.986;2023-05-07T00:21:12;5.60;;;4.90;;
55350;SDS011;62194;49.480;10.986;2023-05-07T00:21:18;5.65;;;5.03;;
55350;SDS011;62194;49.480;10.986;2023-05-07T00:21:23;5.70;;;5.10;;
55350;SDS011;62194;49.480;10.986;2023-05-07T00:21:31;6.00;;;5.05;;
55350;SDS011;62194;49.480;10.986;2023-05-07T00:21:36;5.80;;;5.07;;
55350;SDS011;62194;49.480;10.986;2023-05-07T00:21:42;5.65;;;5.03;;
55350;SDS011;62194;49.480;10.986;2023-05-07T00:21:47;5.70;;;5.00;;
55350;SDS011;62194;49.480;10.986;2023-05-07T00:21:52;6.33;;;5.00;;
55350;SDS011;62194;49.480;10.986;2023-05-07T00:22:01;6.40;;;4.90;;
55350;SDS011;62194;49.480;10.986;2023-05-07T00:22:06;6.60;;;4.90;;
55350;SDS011;62194;49.480;10.986;2023-05-07T00:22:16;7.26;;;4.88;;
55350;SDS011;62194;49.480;10.986;2023-05-07T00:22:22;7.66;;;4.84;;
55350;SDS011;62194;49.480;10.986;2023-05-07T00:22:27;7.40;;;4.77;;
55350;SDS011;62194;49.480;10.986;2023-05-07T00:22:35;7.45;;;4.82;;
55350;SDS011;62194;49.480;10.986;2023-05-07T00:22:40;7.03;;;4.90;;
55350;SDS011;62194;49.480;10.986;2023-05-07T00:22:45;6.30;;;5.03;;
55350;SDS011;62194;49.480;10.986;2023-05-07T00:22:50;6.78;;;5.13;;
55350;SDS011;62194;49.480;10.986;2023-05-07T00:22:56;7.03;;;5.20;;
55350;SDS011;62194;49.480;10.986;2023-05-07T00:23:01;6.40;;;5.10;;
55350;SDS011;62194;49.480;10.986;2023-05-07T00:23:06;6.30;;;5.07;;
55350;SDS011;62194;49.480;10.986;2023-05-07T00:23:12;6.33;;;4.93;;
55350;SDS011;62194;49.480;10.986;2023-05-07T00:23:17;6.00;;;4.87;;
55350;SDS011;62194;49.480;10.986;2023-05-07T00:23:22;5.27;;;4.77;;
55350;SDS011;62194;49.480;10.986;2023-05-07T00:23:28;5.20;;;4.70;;
55350;SDS011;62194;49.480;10.986;2023-05-07T00:23:33;5.13;;;4.63;;
55350;SDS011;62194;49.480;10.986;2023-05-07T00:23:38;5.23;;;4.73;;
55350;SDS011;62194;49.480;10.986;2023-05-07T00:23:43;5.82;;;4.72;;
55350;SDS011;62194;49.480;10.986;2023-05-07T00:23:49;6.00;;;4.80;;
55350;SDS011;62194;49.480;10.986;2023-05-07T00:23:54;6.37;;;4.87;;
55350;SDS011;62194;49.480;10.986;2023-05-07T00:23:59;6.85;;;4.80;;
55350;SDS011;62194;49.480;10.986;2023-05-07T00:24:05;6.77;;;4.73;;
55350;SDS011;62194;49.480;10.986;2023-05-07T00:24:10;6.40;;;4.70;;
55350;SDS011;62194;49.480;10.986;2023-05-07T00:24:15;5.78;;;4.70;;
55350;SDS011;62194;49.480;10.986;2023-05-07T00:24:21;6.33;;;4.90;;
55350;SDS011;62194;49.480;10.986;2023-05-07T00:24:26;6.30;;;4.90;;
55350;SDS011;62194;49.480;10.986;2023-05-07T00:24:31;6.30;;;5.13;;
55350;SDS011;62194;49.480;10.986;2023-05-07T00:24:36;6.70;;;5.20;;
55350;SDS011;62194;49.480;10.986;2023-05-07T00:24:42;6.80;;;5.13;;
55350;SDS011;62194;49.480;10.986;2023-05-07T00:24:47;6.63;;;5.13;;
55350;SDS011;62194;49.480;10.986;2023-05-07T00:24:52;5.82;;;4.95;;
55350;SDS011;62194;49.480;10.986;2023-05-07T00:24:58;5.63;;;5.03;;
55350;SDS011;62194;49.480;10.986;2023-05-07T00:25:04;5.63;;;5.00;;
55350;SDS011;62194;49.480;10.986;2023-05-07T00:25:10;5.57;;;5.03;;
55350;SDS011;62194;49.480;10.986;2023-05-07T00:25:15;5.60;;;5.10;;
55350;SDS011;62194;49.480;10.986;2023-05-07T00:25:20;5.50;;;5.00;;
55350;SDS011;62194;49.480;10.986;2023-05-07T00:25:26;5.33;;;4.83;;
55350;SDS011;62194;49.480;10.986;2023-05-07T00:25:31;5.00;;;4.50;;
55350;SDS011;62194;49.480;10.986;2023-05-07T00:25:36;4.82;;;4.32;;
55350;SDS011;62194;49.480;10.986;2023-05-07T00:25:41;4.77;;;4.27;;
55350;SDS011;62194;49.480;10.986;2023-05-07T00:25:47;4.67;;;4.17;;
55350;SDS011;62194;49.480;10.986;2023-05-07T00:25:52;4.70;;;4.20;;
55350;SDS011;62194;49.480;10.986;2023-05-07T00:25:57;5.15;;;4.32;;
55350;SDS011;62194;49.480;10.986;2023-05-07T00:26:03;5.23;;;4.40;;
55350;SDS011;62194;49.480;10.986;2023-05-07T00:26:08;5.43;;;4.50;;
55350;SDS011;62194;49.480;10.986;2023-05-07T00:26:13;6.03;;;4.53;;
55350;SDS011;62194;49.480;10.986;2023-05-07T00:26:19;5.83;;;4.50;;
55350;SDS011;62194;49.480;10.986;2023-05-07T00:26:25;6.33;;;4.47;;
55350;SDS011;62194;49.480;10.986;2023-05-07T00:26:30;6.53;;;4.67;;
55350;SDS011;62194;49.480;10.986;2023-05-07T00:26:36;6.47;;;4.60;;
55350;SDS011;62194;49.480;10.986;2023-05-07T00:26:41;6.23;;;4.53;;
55350;SDS011;62194;49.480;10.986;2023-05-07T00:26:46;5.72;;;4.53;;
55350;SDS011;62194;49.480;10.986;2023-05-07T00:26:51;5.80;;;4.57;;
55350;SDS011;62194;49.480;10.986;2023-05-07T00:26:57;4.97;;;4.47;;
55350;SDS011;62194;49.480;10.986;2023-05-07T00:27:03;4.77;;;4.27;;
55350;SDS011;62194;49.480;10.986;2023-05-07T00:27:08;4.90;;;4.40;;
55350;SDS011;62194;49.480;10.986;2023-05-07T00:27:13;5.07;;;4.53;;
55350;SDS011;62194;49.480;10.986;2023-05-07T00:27:18;5.53;;;4.70;;
55350;SDS011;62194;49.480;10.986;2023-05-07T00:27:24;6.50;;;4.87;;
55350;SDS011;62194;49.480;10.986;2023-05-07T00:27:30;6.68;;;4.88;;
55350;SDS011;62194;49.480;10.986;2023-05-07T00:27:35;6.65;;;4.80;;
55350;SDS011;62194;49.480;10.986;2023-05-07T00:27:40;6.97;;;4.70;;
55350;SDS011;62194;49.480;10.986;2023-05-07T00:27:46;7.03;;;4.63;;
55350;SDS011;62194;49.480;10.986;2023-05-07T00:27:51;7.47;;;4.75;;
55350;SDS011;62194;49.480;10.986;2023-05-07T00:27:56;7.27;;;4.80;;
55350;SDS011;62194;49.480;10.986;2023-05-07T00:28:07;7.63;;;4.77;;
55350;SDS011;62194;49.480;10.986;2023-05-07T00:28:12;7.43;;;4.77;;
55350;SDS011;62194;49.480;10.986;2023-05-07T00:28:18;6.35;;;4.65;;
55350;SDS011;62194;49.480;10.986;2023-05-07T00:28:23;5.50;;;4.33;;
55350;SDS011;62194;49.480;10.986;2023-05-07T00:28:28;5.30;;;4.30;;
55350;SDS011;62194;49.480;10.986;2023-05-07T00:28:33;4.87;;;4.30;;
55350;SDS011;62194;49.480;10.986;2023-05-07T00:28:39;5.07;;;4.43;;
55350;SDS011;62194;49.480;10.986;2023-05-07T00:28:44;5.27;;;4.30;;
55350;SDS011;62194;49.480;10.986;2023-05-07T00:28:49;5.50;;;4.20;;
55350;SDS011;62194;49.480;10.986;2023-05-07T00:28:55;5.55;;;4.20;;
55350;SDS011;62194;49.480;10.986;2023-05-07T00:29:00;5.43;;;4.10;;
55350;SDS011;62194;49.480;10.986;2023-05-07T00:29:05;5.27;;;3.97;;
55350;SDS011;62194;49.480;10.986;2023-05-07T00:29:11;5.63;;;4.00;;
55350;SDS011;62194;49.480;10.986;2023-05-07T00:29:16;5.40;;;4.00;;
55350;SDS011;62194;49.480;10.986;2023-05-07T00:29:21;5.50;;;4.17;;
55350;SDS011;62194;49.480;10.986;2023-05-07T00:29:26;5.97;;;4.37;;
55350;SDS011;62194;49.480;10.986;2023-05-07T00:29:32;6.07;;;4.45;;
55350;SDS011;62194;49.480;10.986;2023-05-07T00:29:37;5.93;;;4.50;;
55350;SDS011;62194;49.480;10.986;2023-05-07T00:29:42;5.70;;;4.43;;
55350;SDS011;62194;49.480;10.986;2023-05-07T00:29:47;5.67;;;4.40;;
55350;SDS011;62194;49.480;10.986;2023-05-07T00:29:53;5.50;;;4.25;;
55350;SDS011;62194;49.480;10.986;2023-05-07T00:29:58;5.03;;;4.10;;
55350;SDS011;62194;49.480;10.986;2023-05-07T00:30:03;4.97;;;4.00;;
55350;SDS011;62194;49.480;10.986;2023-05-07T00:30:09;4.95;;;4.15;;
55350;SDS011;62194;49.480;10.986;2023-05-07T00:30:15;4.90;;;4.20;;
55350;SDS011;62194;49.480;10.986;2023-05-07T00:30:20;5.20;;;4.38;;
55350;SDS011;62194;49.480;10.986;2023-05-07T00:30:26;5.73;;;4.50;;
55350;SDS011;62194;49.480;10.986;2023-05-07T00:30:31;6.03;;;4.57;;
55350;SDS011;62194;49.480;10.986;2023-05-07T00:30:37;6.05;;;4.57;;
55350;SDS011;62194;49.480;10.986;2023-05-07T00:30:42;5.63;;;4.37;;
55350;SDS011;62194;49.480;10.986;2023-05-07T00:30:47;5.10;;;4.33;;
55350;SDS011;62194;49.480;10.986;2023-05-07T00:30:52;4.85;;;4.20;;
55350;SDS011;62194;49.480;10.986;2023-05-07T00:30:58;4.60;;;4.10;;
55350;SDS011;62194;49.480;10.986;2023-05-07T00:31:09;4.70;;;4.20;;
55350;SDS011;62194;49.480;10.986;2023-05-07T00:31:15;4.80;;;4.30;;
55350;SDS011;62194;49.480;10.986;2023-05-07T00:31:20;4.83;;;4.33;;
55350;SDS011;62194;49.480;10.986;2023-05-07T00:31:25;4.90;;;4.33;;
55350;SDS011;62194;49.480;10.986;2023-05-07T00:31:30;4.97;;;4.28;;
55350;SDS011;62194;49.480;10.986;2023-05-07T00:31:36;5.03;;;4.27;;
55350;SDS011;62194;49.480;10.986;2023-05-07T00:31:41;5.00;;;4.20;;
55350;SDS011;62194;49.480;10.986;2023-05-07T00:31:46;5.40;;;4.10;;
55350;SDS011;62194;49.480;10.986;2023-05-07T00:31:54;5.15;;;4.07;;
55350;SDS011;62194;49.480;10.986;2023-05-07T00:32:00;5.00;;;4.00;;
55350;SDS011;62194;49.480;10.986;2023-05-07T00:32:05;4.90;;;4.07;;
55350;SDS011;62194;49.480;10.986;2023-05-07T00:32:10;4.93;;;4.18;;
55350;SDS011;62194;49.480;10.986;2023-05-07T00:32:15;5.57;;;4.43;;
55350;SDS011;62194;49.480;10.986;2023-05-07T00:32:21;6.13;;;4.80;;
55350;SDS011;62194;49.480;10.986;2023-05-07T00:32:26;6.53;;;4.90;;
55350;SDS011;62194;49.480;10.986;2023-05-07T00:32:31;6.57;;;5.03;;
55350;SDS011;62194;49.480;10.986;2023-05-07T00:32:37;6.63;;;5.00;;
55350;SDS011;62194;49.480;10.986;2023-05-07T00:32:43;6.83;;;5.30;;
55350;SDS011;62194;49.480;10.986;2023-05-07T00:32:50;6.08;;;5.10;;
55350;SDS011;62194;49.480;10.986;2023-05-07T00:32:55;5.60;;;4.80;;
55350;SDS011;62194;49.480;10.986;2023-05-07T00:33:00;5.70;;;4.80;;
55350;SDS011;62194;49.480;10.986;2023-05-07T00:33:06;5.47;;;4.70;;
55350;SDS011;62194;49.480;10.986;2023-05-07T00:33:11;5.72;;;4.50;;
55350;SDS011;62194;49.480;10.986;2023-05-07T00:33:19;5.27;;;4.43;;